createdAt,value
2018-11-22T07:16:36.995Z,31.60
2018-11-22T07:17:12.099Z,30.80
2018-11-22T07:17:47.581Z,31.40
2018-11-22T07:18:22.795Z,32.80
2018-11-22T07:18:58.189Z,31.60
2018-11-22T07:19:33.337Z,32.80
2018-11-22T07:20:08.557Z,31.80
2018-11-22T07:20:43.718Z,32.00
2018-11-22T07:21:19.100Z,32.70
2018-11-22T07:21:54.270Z,33.50
2018-11-22T07:22:29.759Z,34.90
2018-11-22T07:23:05.123Z,33.00
2018-11-22T07:23:40.334Z,31.80
2018-11-22T07:24:15.814Z,31.40
2018-11-22T07:24:51.394Z,31.10
2018-11-22T07:25:26.555Z,31.40
2018-11-22T07:26:02.051Z,32.30
2018-11-22T07:26:37.424Z,32.00
2018-11-22T07:27:12.814Z,33.10
2018-11-22T07:27:48.179Z,31.80
2018-11-22T07:28:23.876Z,32.20
2018-11-22T07:28:59.397Z,33.30
2018-11-22T07:29:34.712Z,32.00
2018-11-22T07:30:09.972Z,32.00
2018-11-22T07:30:45.276Z,31.10
2018-11-22T07:31:20.651Z,33.90
2018-11-22T07:31:55.943Z,33.00
2018-11-22T07:32:31.231Z,31.90
2018-11-22T07:33:06.823Z,32.10
2018-11-22T07:33:42.089Z,31.40
2018-11-22T07:34:17.505Z,32.50
2018-11-22T07:34:53.006Z,32.40
2018-11-22T07:35:28.317Z,31.60
2018-11-22T07:36:03.810Z,33.10
2018-11-22T07:36:39.303Z,34.40
2018-11-22T07:37:14.518Z,33.30
2018-11-22T07:37:49.822Z,32.70
2018-11-22T07:38:25.424Z,31.90
2018-11-22T07:39:00.900Z,33.20
2018-11-22T07:39:36.619Z,33.10
2018-11-22T07:40:11.805Z,32.50
2018-11-22T07:40:46.995Z,31.30
2018-11-22T07:41:22.622Z,30.80
2018-11-22T07:41:57.692Z,31.30
2018-11-22T07:42:33.186Z,32.70
2018-11-22T07:43:08.352Z,32.90
2018-11-22T07:43:43.857Z,31.70
2018-11-22T07:44:19.131Z,31.60
2018-11-22T07:44:54.663Z,32.60
2018-11-22T07:45:29.839Z,32.40
2018-11-22T07:46:05.137Z,32.20
2018-11-22T07:46:40.406Z,33.10
2018-11-22T07:47:15.703Z,33.80
2018-11-22T07:47:51.219Z,33.30
2018-11-22T07:48:26.502Z,32.60
2018-11-22T07:49:01.987Z,31.90
2018-11-22T07:49:37.278Z,31.90
2018-11-22T07:50:13.007Z,32.20
2018-11-22T07:50:48.384Z,31.70
2018-11-22T07:51:23.623Z,35.10
2018-11-22T07:51:58.699Z,34.10
2018-11-22T07:52:33.905Z,31.70
2018-11-22T07:53:09.102Z,31.90
2018-11-22T07:53:44.779Z,31.40
2018-11-22T07:54:19.972Z,32.60
2018-11-22T07:54:55.157Z,33.90
2018-11-22T07:55:30.772Z,32.20
2018-11-22T07:56:05.957Z,32.10
2018-11-22T07:56:41.379Z,33.40
2018-11-22T07:57:16.756Z,32.30
2018-11-22T07:57:52.167Z,32.10
2018-11-22T07:58:27.266Z,33.00
2018-11-22T07:59:02.944Z,33.40
2018-11-22T07:59:38.546Z,31.90
2018-11-22T08:00:13.836Z,32.10
2018-11-22T08:00:49.355Z,32.70
2018-11-22T08:01:24.529Z,31.90
2018-11-22T08:01:59.935Z,32.20
2018-11-22T08:02:35.320Z,33.30
2018-11-22T08:03:10.502Z,33.70
2018-11-22T08:03:45.962Z,33.10
2018-11-22T08:04:21.560Z,32.80
2018-11-22T08:04:57.044Z,32.60
2018-11-22T08:05:32.535Z,32.30
2018-11-22T08:06:08.147Z,31.80
2018-11-22T08:06:43.334Z,33.90
2018-11-22T08:07:18.635Z,31.50
2018-11-22T08:07:53.798Z,30.90
2018-11-22T08:08:29.114Z,31.20
2018-11-22T08:09:04.390Z,33.20
2018-11-22T08:09:39.785Z,32.70
2018-11-22T08:10:14.892Z,33.20
2018-11-22T08:10:50.211Z,32.90
2018-11-22T08:11:25.509Z,33.70
2018-11-22T08:12:00.970Z,33.80
2018-11-22T08:12:36.520Z,31.10
2018-11-22T08:13:11.871Z,32.60
2018-11-22T08:13:47.192Z,33.90
2018-11-22T08:14:22.378Z,33.30
2018-11-22T08:14:57.671Z,32.50
2018-11-22T08:15:32.942Z,31.50
2018-11-22T08:16:08.365Z,30.30
2018-11-22T08:16:43.676Z,31.70
2018-11-22T08:17:18.935Z,32.40
2018-11-22T08:17:54.334Z,32.40
2018-11-22T08:18:29.721Z,30.40
2018-11-22T08:19:05.116Z,31.90
2018-11-22T08:19:40.797Z,31.70
2018-11-22T08:20:16.193Z,29.90
2018-11-22T08:20:51.700Z,29.60
2018-11-22T08:21:27.127Z,30.50
2018-11-22T08:22:02.529Z,30.60
2018-11-22T08:22:37.812Z,31.10
2018-11-22T08:23:12.913Z,31.10
2018-11-22T08:23:48.292Z,31.90
2018-11-22T08:24:23.614Z,31.60
2018-11-22T08:24:59.099Z,30.80
2018-11-22T08:25:34.631Z,31.10
2018-11-22T08:26:10.121Z,29.60
2018-11-22T08:26:45.443Z,30.00
2018-11-22T08:27:20.682Z,31.70
2018-11-22T08:27:55.852Z,32.60
2018-11-22T08:28:31.166Z,31.90
2018-11-22T08:29:06.344Z,32.20
2018-11-22T08:29:41.859Z,31.90
2018-11-22T08:30:17.236Z,31.80
2018-11-22T08:30:52.456Z,32.60
2018-11-22T08:31:27.733Z,32.80
2018-11-22T08:32:02.959Z,32.30
2018-11-22T08:32:38.030Z,31.90
2018-11-22T08:33:13.324Z,30.50
2018-11-22T08:33:48.628Z,31.20
2018-11-22T08:34:23.915Z,30.40
2018-11-22T08:34:59.507Z,29.50
2018-11-22T08:35:34.819Z,29.20
2018-11-22T08:36:10.316Z,30.70
2018-11-22T08:36:46.108Z,33.10
2018-11-22T08:37:21.447Z,31.70
2018-11-22T08:37:56.535Z,31.60
2018-11-22T08:38:31.929Z,31.50
2018-11-22T08:39:07.101Z,29.50
2018-11-22T08:39:42.688Z,30.80
2018-11-22T08:40:18.084Z,29.40
2018-11-22T08:40:53.374Z,30.80
2018-11-22T08:41:28.969Z,29.50
2018-11-22T08:42:04.653Z,30.10
2018-11-22T08:42:40.287Z,32.40
2018-11-22T08:43:15.656Z,30.80
2018-11-22T08:43:50.952Z,31.10
2018-11-22T08:44:26.451Z,31.20
2018-11-22T08:45:02.045Z,30.50
2018-11-22T08:45:37.329Z,30.80
2018-11-22T08:46:12.701Z,30.40
2018-11-22T08:46:47.993Z,30.20
2018-11-22T08:47:23.178Z,30.90
2018-11-22T08:47:58.826Z,32.00
2018-11-22T08:48:34.301Z,33.50
2018-11-22T08:49:09.806Z,31.30
2018-11-22T08:49:44.993Z,30.80
2018-11-22T08:50:20.300Z,29.20
2018-11-22T08:50:55.571Z,29.10
2018-11-22T08:51:30.992Z,30.20
2018-11-22T08:52:06.595Z,29.90
2018-11-22T08:52:42.079Z,27.40
2018-11-22T08:53:17.609Z,28.30
2018-11-22T08:53:52.893Z,29.10
2018-11-22T08:54:28.491Z,30.30
2018-11-22T08:55:03.858Z,32.70
2018-11-22T08:55:38.954Z,31.20
2018-11-22T08:56:14.142Z,29.80
2018-11-22T08:56:49.728Z,30.20
2018-11-22T08:57:25.029Z,29.40
2018-11-22T08:58:00.509Z,31.40
2018-11-22T08:58:35.835Z,31.80
2018-11-22T08:59:11.112Z,32.50
2018-11-22T08:59:46.420Z,31.60
2018-11-22T09:00:21.612Z,29.60
2018-11-22T09:00:57.203Z,29.60
2018-11-22T09:01:32.772Z,30.70
2018-11-22T09:02:07.872Z,31.50
2018-11-22T09:02:45.454Z,32.90
2018-11-22T09:03:18.741Z,30.20
2018-11-22T09:03:54.213Z,30.40
2018-11-22T09:04:50.695Z,30.60
2018-11-22T09:05:25.899Z,29.90
2018-11-22T09:06:01.394Z,29.60
2018-11-22T09:06:36.902Z,29.70
2018-11-22T09:07:12.169Z,30.20
2018-11-22T09:07:47.597Z,31.80
2018-11-22T09:08:23.098Z,32.60
2018-11-22T09:08:58.708Z,31.80
2018-11-22T09:09:33.929Z,31.40
2018-11-22T09:10:09.405Z,29.90
2018-11-22T09:10:45.023Z,29.40
2018-11-22T09:11:20.302Z,30.90
2018-11-22T09:11:55.607Z,29.80
2018-11-22T09:12:30.884Z,27.90
2018-11-22T09:13:06.199Z,28.00
2018-11-22T09:13:41.786Z,29.30
2018-11-22T09:14:17.211Z,29.20
2018-11-22T09:14:52.835Z,29.70
2018-11-22T09:15:31.340Z,29.40
2018-11-22T09:16:03.606Z,30.00
2018-11-22T09:16:38.779Z,30.70
2018-11-22T09:17:14.091Z,29.90
2018-11-22T09:17:49.373Z,29.80
2018-11-22T09:18:25.084Z,29.60
2018-11-22T09:19:00.267Z,29.40
2018-11-22T09:19:35.698Z,29.30
2018-11-22T09:20:11.201Z,29.50
2018-11-22T09:20:46.583Z,29.40
2018-11-22T09:21:22.089Z,29.50
2018-11-22T09:21:57.461Z,28.50
2018-11-22T09:22:32.894Z,28.10
2018-11-22T09:23:08.556Z,29.00
2018-11-22T09:23:43.949Z,28.90
2018-11-22T09:24:24.130Z,28.90
2018-11-22T09:24:54.884Z,29.10
2018-11-22T09:25:29.982Z,29.00
2018-11-22T09:26:05.594Z,30.20
2018-11-22T09:26:40.861Z,28.90
2018-11-22T09:27:16.064Z,28.00
2018-11-22T09:27:51.357Z,28.20
2018-11-22T09:28:27.392Z,27.60
2018-11-22T09:29:01.740Z,27.40
2018-11-22T09:29:39.555Z,27.30
2018-11-22T09:30:12.777Z,27.50
2018-11-22T09:30:47.875Z,27.30
2018-11-22T09:31:23.348Z,27.40
2018-11-22T09:31:58.754Z,29.00
2018-11-22T09:32:34.084Z,29.40
2018-11-22T09:33:09.363Z,28.30
